aviador You're here:

KMOB Decoded Metar

MOBILE in AL, USA
Report Time2018-04-26 21:56:00
UTC Time2018-04-26 22:46:32
Flight Rules vfr VFR
Wind320° at 08 kt
W.Decomp.*RWY 32: 8.0 kt HW 0.1 kt RCW
RWY 36: 6.2 kt HW 5 kt LCW
W.Rank320° ranks 16
Current wind is above 320° avg. (5.8)
Visibility9999 m
Phenomena:N/A
Clouds:Few 045 Hf
Expected CloudBase > 4,800 ft AGL from Temp-Dew spread
CeilingNone
Temp23°C (ISA +8)
Dew Point11°C (47% RH)
AAT20.5°C
QNH1010 hPa
Density Alt1,463 ft
Elevation207 ft
Report Wrong Elevation
Raw Report
KMOB 262156Z 32008KT 10SM FEW045 23/11 A2984 RMK AO2 SLP103
T02280106 $=

Extra information for KMOB:More info

Metar Taf Metar & Taf Last 4 Metars F.Rules Stats Wind Profile Meteogram Temp Stats Airport Information Weather charts Add Link Nearby VenuesMetar ALERT Operation Metar Decoded Social comments

AIRNAV info for KMOB